sensor_id;sensor_type;location;lat;lon;timestamp;pressure;altitude;pressure_sealevel;temperature;humidity
49102;BME280;34913;47.520;19.186;2023-06-14T00:01:34;99625.63;;;13.63;83.07
49102;BME280;34913;47.520;19.186;2023-06-14T00:04:01;99621.97;;;13.64;83.47
49102;BME280;34913;47.520;19.186;2023-06-14T00:06:28;99620.34;;;13.71;83.38
49102;BME280;34913;47.520;19.186;2023-06-14T00:08:53;99623.69;;;13.73;83.42
49102;BME280;34913;47.520;19.186;2023-06-14T00:11:19;99623.19;;;13.69;83.28
49102;BME280;34913;47.520;19.186;2023-06-14T00:13:45;99629.56;;;13.77;82.74
49102;BME280;34913;47.520;19.186;2023-06-14T00:16:10;99626.22;;;13.75;83.27
49102;BME280;34913;47.520;19.186;2023-06-14T00:18:36;99632.06;;;13.78;83.71
49102;BME280;34913;47.520;19.186;2023-06-14T00:21:02;99627.56;;;13.79;83.32
49102;BME280;34913;47.520;19.186;2023-06-14T00:23:29;99630.06;;;13.80;82.84
49102;BME280;34913;47.520;19.186;2023-06-14T00:25:55;99640.13;;;13.86;82.50
49102;BME280;34913;47.520;19.186;2023-06-14T00:28:20;99628.63;;;13.86;82.61
49102;BME280;34913;47.520;19.186;2023-06-14T00:30:46;99641.50;;;13.90;82.61
49102;BME280;34913;47.520;19.186;2023-06-14T00:33:12;99645.81;;;13.65;83.39
49102;BME280;34913;47.520;19.186;2023-06-14T00:35:37;99640.13;;;13.60;84.48
49102;BME280;34913;47.520;19.186;2023-06-14T00:38:03;99637.75;;;13.57;84.61
49102;BME280;34913;47.520;19.186;2023-06-14T00:40:29;99637.22;;;13.54;84.89
49102;BME280;34913;47.520;19.186;2023-06-14T00:42:54;99628.84;;;13.49;85.49
49102;BME280;34913;47.520;19.186;2023-06-14T00:45:19;99642.19;;;13.49;86.03
49102;BME280;34913;47.520;19.186;2023-06-14T00:47:46;99641.50;;;13.47;85.90
49102;BME280;34913;47.520;19.186;2023-06-14T00:50:13;99644.78;;;13.40;86.01
49102;BME280;34913;47.520;19.186;2023-06-14T00:52:39;99646.53;;;13.32;86.31
49102;BME280;34913;47.520;19.186;2023-06-14T00:55:05;99645.09;;;13.37;86.61
49102;BME280;34913;47.520;19.186;2023-06-14T00:57:31;99639.97;;;13.26;85.78
49102;BME280;34913;47.520;19.186;2023-06-14T00:59:57;99639.19;;;13.16;87.02
49102;BME280;34913;47.520;19.186;2023-06-14T01:02:22;99637.50;;;12.97;87.71
49102;BME280;34913;47.520;19.186;2023-06-14T01:04:49;99644.88;;;12.85;88.35
49102;BME280;34913;47.520;19.186;2023-06-14T01:15:32;99646.22;;;12.72;89.97
49102;BME280;34913;47.520;19.186;2023-06-14T01:17:59;99646.72;;;12.57;89.52
49102;BME280;34913;47.520;19.186;2023-06-14T01:20:29;99645.53;;;12.42;90.90
49102;BME280;34913;47.520;19.186;2023-06-14T01:22:56;99637.13;;;12.37;91.85
49102;BME280;34913;47.520;19.186;2023-06-14T01:25:22;99639.53;;;12.30;91.69
49102;BME280;34913;47.520;19.186;2023-06-14T01:27:53;99630.81;;;12.11;92.71
49102;BME280;34913;47.520;19.186;2023-06-14T01:30:21;99637.69;;;12.04;93.47
49102;BME280;34913;47.520;19.186;2023-06-14T01:32:49;99640.38;;;11.94;94.09
49102;BME280;34913;47.520;19.186;2023-06-14T01:35:16;99639.69;;;11.82;95.40
49102;BME280;34913;47.520;19.186;2023-06-14T01:37:42;99640.13;;;11.87;95.70
49102;BME280;34913;47.520;19.186;2023-06-14T01:40:09;99643.06;;;11.94;95.41
49102;BME280;34913;47.520;19.186;2023-06-14T01:42:37;99644.28;;;11.99;94.47
49102;BME280;34913;47.520;19.186;2023-06-14T01:45:05;99640.34;;;12.04;94.64
49102;BME280;34913;47.520;19.186;2023-06-14T01:47:34;99653.34;;;12.07;94.11
49102;BME280;34913;47.520;19.186;2023-06-14T01:50:02;99652.84;;;11.93;93.71
49102;BME280;34913;47.520;19.186;2023-06-14T01:52:28;99643.47;;;11.80;94.78
49102;BME280;34913;47.520;19.186;2023-06-14T01:54:53;99646.81;;;11.91;95.47
49102;BME280;34913;47.520;19.186;2023-06-14T01:57:19;99648.63;;;11.91;94.44
49102;BME280;34913;47.520;19.186;2023-06-14T01:59:45;99649.75;;;11.79;94.22
49102;BME280;34913;47.520;19.186;2023-06-14T02:02:14;99660.41;;;11.79;96.55
49102;BME280;34913;47.520;19.186;2023-06-14T02:04:39;99655.81;;;11.81;97.52
49102;BME280;34913;47.520;19.186;2023-06-14T02:07:05;99661.13;;;11.81;97.27
49102;BME280;34913;47.520;19.186;2023-06-14T02:09:30;99662.94;;;11.70;98.17
49102;BME280;34913;47.520;19.186;2023-06-14T02:11:56;99661.81;;;11.73;98.82
49102;BME280;34913;47.520;19.186;2023-06-14T02:14:21;99667.53;;;11.78;97.38
49102;BME280;34913;47.520;19.186;2023-06-14T02:16:46;99670.75;;;11.91;97.37
49102;BME280;34913;47.520;19.186;2023-06-14T02:19:15;99662.78;;;11.82;97.92
49102;BME280;34913;47.520;19.186;2023-06-14T02:21:41;99662.94;;;11.80;98.25
49102;BME280;34913;47.520;19.186;2023-06-14T02:24:07;99668.25;;;11.80;97.38
49102;BME280;34913;47.520;19.186;2023-06-14T02:26:32;99661.94;;;11.71;98.59
49102;BME280;34913;47.520;19.186;2023-06-14T02:28:58;99655.09;;;11.79;98.56
49102;BME280;34913;47.520;19.186;2023-06-14T02:31:23;99661.41;;;11.87;97.98
49102;BME280;34913;47.520;19.186;2023-06-14T02:33:51;99667.25;;;11.91;97.70
49102;BME280;34913;47.520;19.186;2023-06-14T02:36:16;99660.72;;;11.85;99.28
49102;BME280;34913;47.520;19.186;2023-06-14T02:38:42;99661.13;;;11.81;99.25
49102;BME280;34913;47.520;19.186;2023-06-14T02:41:07;99658.72;;;11.78;99.49
49102;BME280;34913;47.520;19.186;2023-06-14T02:43:33;99661.38;;;11.78;99.14
49102;BME280;34913;47.520;19.186;2023-06-14T02:45:58;99658.31;;;11.82;98.94
49102;BME280;34913;47.520;19.186;2023-06-14T02:48:24;99661.13;;;11.81;98.37
49102;BME280;34913;47.520;19.186;2023-06-14T02:50:49;99650.34;;;11.72;98.41
49102;BME280;34913;47.520;19.186;2023-06-14T02:53:15;99642.38;;;11.63;98.09
49102;BME280;34913;47.520;19.186;2023-06-14T02:55:41;99644.47;;;11.59;99.00
49102;BME280;34913;47.520;19.186;2023-06-14T02:58:06;99650.22;;;11.55;98.79
49102;BME280;34913;47.520;19.186;2023-06-14T03:00:32;99647.44;;;11.46;98.79
49102;BME280;34913;47.520;19.186;2023-06-14T03:02:57;99647.81;;;11.52;99.69
49102;BME280;34913;47.520;19.186;2023-06-14T03:05:26;99647.84;;;11.61;99.10
49102;BME280;34913;47.520;19.186;2023-06-14T03:07:53;99650.19;;;11.64;98.22
49102;BME280;34913;47.520;19.186;2023-06-14T03:10:19;99652.16;;;11.53;98.01
49102;BME280;34913;47.520;19.186;2023-06-14T03:12:44;99646.44;;;11.48;98.48
49102;BME280;34913;47.520;19.186;2023-06-14T03:15:10;99653.28;;;11.50;98.82
49102;BME280;34913;47.520;19.186;2023-06-14T03:17:38;99647.53;;;11.45;99.39
49102;BME280;34913;47.520;19.186;2023-06-14T03:20:04;99650.34;;;11.43;99.87
49102;BME280;34913;47.520;19.186;2023-06-14T03:22:30;99654.44;;;11.38;100.00
49102;BME280;34913;47.520;19.186;2023-06-14T03:24:58;99648.97;;;11.39;100.00
49102;BME280;34913;47.520;19.186;2023-06-14T03:27:24;99656.38;;;11.36;100.00
49102;BME280;34913;47.520;19.186;2023-06-14T03:29:50;99652.59;;;11.38;100.00
49102;BME280;34913;47.520;19.186;2023-06-14T03:32:16;99657.19;;;11.36;100.00
49102;BME280;34913;47.520;19.186;2023-06-14T03:34:42;99666.59;;;11.31;100.00
49102;BME280;34913;47.520;19.186;2023-06-14T03:37:07;99668.97;;;11.34;100.00
49102;BME280;34913;47.520;19.186;2023-06-14T03:39:33;99671.47;;;11.35;100.00
49102;BME280;34913;47.520;19.186;2023-06-14T03:41:58;99657.94;;;11.38;100.00
49102;BME280;34913;47.520;19.186;2023-06-14T03:44:26;99661.41;;;11.49;100.00
49102;BME280;34913;47.520;19.186;2023-06-14T03:46:52;99661.25;;;11.60;100.00
49102;BME280;34913;47.520;19.186;2023-06-14T03:49:17;99665.16;;;11.75;100.00
49102;BME280;34913;47.520;19.186;2023-06-14T03:51:43;99661.50;;;11.95;100.00
49102;BME280;34913;47.520;19.186;2023-06-14T03:54:08;99664.53;;;12.20;99.86
49102;BME280;34913;47.520;19.186;2023-06-14T03:56:33;99667.47;;;12.54;97.51
49102;BME280;34913;47.520;19.186;2023-06-14T03:58:59;99672.97;;;12.98;95.16
49102;BME280;34913;47.520;19.186;2023-06-14T04:01:25;99669.22;;;13.54;92.06
49102;BME280;34913;47.520;19.186;2023-06-14T04:03:54;99669.47;;;13.86;89.41
49102;BME280;34913;47.520;19.186;2023-06-14T04:06:20;99664.50;;;14.17;87.30
49102;BME280;34913;47.520;19.186;2023-06-14T04:08:45;99664.75;;;14.32;83.17
49102;BME280;34913;47.520;19.186;2023-06-14T04:11:11;99669.34;;;14.82;81.13
49102;BME280;34913;47.520;19.186;2023-06-14T04:13:36;99670.22;;;14.99;79.06
49102;BME280;34913;47.520;19.186;2023-06-14T04:16:04;99676.31;;;15.25;78.32
49102;BME280;34913;47.520;19.186;2023-06-14T04:18:29;99675.03;;;15.70;75.48
49102;BME280;34913;47.520;19.186;2023-06-14T04:20:55;99676.53;;;15.97;74.27
49102;BME280;34913;47.520;19.186;2023-06-14T04:23:21;99680.38;;;15.95;73.60
49102;BME280;34913;47.520;19.186;2023-06-14T04:25:47;99688.56;;;16.01;72.67
49102;BME280;34913;47.520;19.186;2023-06-14T04:28:14;99693.75;;;15.86;73.32
49102;BME280;34913;47.520;19.186;2023-06-14T04:30:43;99686.22;;;16.14;73.13
49102;BME280;34913;47.520;19.186;2023-06-14T04:33:10;99685.63;;;16.99;71.61
49102;BME280;34913;47.520;19.186;2023-06-14T04:35:36;99692.34;;;17.49;68.12
49102;BME280;34913;47.520;19.186;2023-06-14T04:38:03;99702.31;;;17.63;66.91
49102;BME280;34913;47.520;19.186;2023-06-14T04:40:33;99696.28;;;17.84;66.70
49102;BME280;34913;47.520;19.186;2023-06-14T04:42:59;99699.28;;;17.89;66.57
49102;BME280;34913;47.520;19.186;2023-06-14T04:45:24;99695.38;;;17.92;64.79
49102;BME280;34913;47.520;19.186;2023-06-14T04:47:58;99694.41;;;18.07;65.62
49102;BME280;34913;47.520;19.186;2023-06-14T04:50:24;99695.84;;;18.18;64.52
49102;BME280;34913;47.520;19.186;2023-06-14T04:52:50;99690.63;;;18.02;65.74
49102;BME280;34913;47.520;19.186;2023-06-14T04:55:16;99690.34;;;17.74;66.10
49102;BME280;34913;47.520;19.186;2023-06-14T04:57:44;99697.25;;;17.91;66.18
49102;BME280;34913;47.520;19.186;2023-06-14T05:00:10;99700.63;;;17.85;66.67
49102;BME280;34913;47.520;19.186;2023-06-14T05:02:36;99702.97;;;18.26;65.53
49102;BME280;34913;47.520;19.186;2023-06-14T05:05:03;99696.34;;;17.99;64.99
49102;BME280;34913;47.520;19.186;2023-06-14T05:07:29;99716.91;;;18.59;64.51
49102;BME280;34913;47.520;19.186;2023-06-14T05:09:55;99714.88;;;18.76;63.77
49102;BME280;34913;47.520;19.186;2023-06-14T05:12:20;99708.06;;;18.94;64.28
49102;BME280;34913;47.520;19.186;2023-06-14T05:14:46;99702.16;;;18.84;63.50
49102;BME280;34913;47.520;19.186;2023-06-14T05:17:11;99706.06;;;19.69;61.72
49102;BME280;34913;47.520;19.186;2023-06-14T05:19:37;99701.88;;;19.88;58.83
49102;BME280;34913;47.520;19.186;2023-06-14T05:22:02;99700.94;;;20.02;59.92
49102;BME280;34913;47.520;19.186;2023-06-14T05:24:28;99695.81;;;20.63;58.09
49102;BME280;34913;47.520;19.186;2023-06-14T05:26:56;99696.22;;;20.67;57.51
49102;BME280;34913;47.520;19.186;2023-06-14T05:29:21;99699.72;;;21.02;56.51
49102;BME280;34913;47.520;19.186;2023-06-14T05:31:47;99698.31;;;21.12;56.14
49102;BME280;34913;47.520;19.186;2023-06-14T05:34:12;99702.84;;;21.05;55.22
49102;BME280;34913;47.520;19.186;2023-06-14T05:36:37;99697.56;;;21.38;54.25
49102;BME280;34913;47.520;19.186;2023-06-14T05:39:03;99703.88;;;21.59;54.44
49102;BME280;34913;47.520;19.186;2023-06-14T05:41:31;99698.47;;;21.59;53.64
49102;BME280;34913;47.520;19.186;2023-06-14T05:43:57;99705.31;;;21.00;55.23
49102;BME280;34913;47.520;19.186;2023-06-14T05:46:23;99703.31;;;20.74;57.64
49102;BME280;34913;47.520;19.186;2023-06-14T05:48:54;99696.97;;;20.88;55.86
49102;BME280;34913;47.520;19.186;2023-06-14T05:51:20;99701.13;;;20.50;57.15
49102;BME280;34913;47.520;19.186;2023-06-14T05:53:49;99701.97;;;20.98;58.36
49102;BME280;34913;47.520;19.186;2023-06-14T05:56:15;99703.81;;;21.39;57.19
49102;BME280;34913;47.520;19.186;2023-06-14T05:58:43;99708.00;;;21.61;54.98
49102;BME280;34913;47.520;19.186;2023-06-14T06:01:08;99709.28;;;21.79;55.15
49102;BME280;34913;47.520;19.186;2023-06-14T06:03:34;99704.94;;;22.17;53.90
49102;BME280;34913;47.520;19.186;2023-06-14T06:05:59;99713.28;;;22.36;52.33
49102;BME280;34913;47.520;19.186;2023-06-14T06:08:26;99707.19;;;22.53;52.69
49102;BME280;34913;47.520;19.186;2023-06-14T06:10:52;99710.88;;;22.92;51.80
49102;BME280;34913;47.520;19.186;2023-06-14T06:13:17;99714.09;;;23.14;50.28
49102;BME280;34913;47.520;19.186;2023-06-14T06:15:42;99714.44;;;23.31;50.25
49102;BME280;34913;47.520;19.186;2023-06-14T06:18:08;99716.00;;;23.45;50.38
49102;BME280;34913;47.520;19.186;2023-06-14T06:20:33;99710.75;;;23.63;49.53
49102;BME280;34913;47.520;19.186;2023-06-14T06:22:59;99721.31;;;23.33;49.52
49102;BME280;34913;47.520;19.186;2023-06-14T06:25:26;99710.84;;;22.99;50.41
49102;BME280;34913;47.520;19.186;2023-06-14T06:27:57;99714.50;;;23.18;51.17
49102;BME280;34913;47.520;19.186;2023-06-14T06:30:23;99714.50;;;23.56;49.61
49102;BME280;34913;47.520;19.186;2023-06-14T06:32:49;99713.72;;;23.49;50.08
49102;BME280;34913;47.520;19.186;2023-06-14T06:35:14;99720.28;;;23.28;51.49
49102;BME280;34913;47.520;19.186;2023-06-14T06:37:41;99717.53;;;23.34;50.63
49102;BME280;34913;47.520;19.186;2023-06-14T06:40:07;99721.34;;;23.20;50.56
49102;BME280;34913;47.520;19.186;2023-06-14T06:42:33;99720.66;;;22.80;51.26
49102;BME280;34913;47.520;19.186;2023-06-14T06:44:59;99724.09;;;22.29;51.72
49102;BME280;34913;47.520;19.186;2023-06-14T06:47:24;99719.28;;;22.18;52.42
49102;BME280;34913;47.520;19.186;2023-06-14T06:49:50;99718.78;;;22.80;52.66
49102;BME280;34913;47.520;19.186;2023-06-14T06:52:16;99717.44;;;23.16;49.53
49102;BME280;34913;47.520;19.186;2023-06-14T06:54:41;99710.22;;;22.97;50.66
49102;BME280;34913;47.520;19.186;2023-06-14T06:57:07;99712.22;;;22.37;49.48
49102;BME280;34913;47.520;19.186;2023-06-14T06:59:33;99715.97;;;22.16;53.50
49102;BME280;34913;47.520;19.186;2023-06-14T07:01:58;99708.47;;;21.98;54.09
49102;BME280;34913;47.520;19.186;2023-06-14T07:04:24;99718.63;;;22.02;52.53
49102;BME280;34913;47.520;19.186;2023-06-14T07:06:50;99716.97;;;21.95;55.39
49102;BME280;34913;47.520;19.186;2023-06-14T07:09:15;99713.06;;;21.97;56.86
49102;BME280;34913;47.520;19.186;2023-06-14T07:11:43;99711.56;;;21.95;54.92
49102;BME280;34913;47.520;19.186;2023-06-14T07:14:09;99710.34;;;22.37;54.27
49102;BME280;34913;47.520;19.186;2023-06-14T07:16:34;99707.44;;;22.19;53.62
49102;BME280;34913;47.520;19.186;2023-06-14T07:19:01;99709.53;;;22.10;55.47
49102;BME280;34913;47.520;19.186;2023-06-14T07:21:27;99719.06;;;22.06;53.52
49102;BME280;34913;47.520;19.186;2023-06-14T07:23:53;99722.19;;;21.96;53.99
49102;BME280;34913;47.520;19.186;2023-06-14T07:26:19;99720.50;;;22.02;54.30
49102;BME280;34913;47.520;19.186;2023-06-14T07:28:44;99719.28;;;21.98;54.16
49102;BME280;34913;47.520;19.186;2023-06-14T07:31:13;99722.00;;;21.98;54.85
49102;BME280;34913;47.520;19.186;2023-06-14T07:33:39;99730.25;;;21.70;54.06
49102;BME280;34913;47.520;19.186;2023-06-14T07:36:04;99719.19;;;21.45;54.73
49102;BME280;34913;47.520;19.186;2023-06-14T07:38:30;99720.75;;;21.19;55.09
49102;BME280;34913;47.520;19.186;2023-06-14T07:40:55;99716.84;;;20.81;57.02
49102;BME280;34913;47.520;19.186;2023-06-14T07:43:20;99726.84;;;20.87;57.05
49102;BME280;34913;47.520;19.186;2023-06-14T07:45:46;99720.22;;;20.89;56.10
49102;BME280;34913;47.520;19.186;2023-06-14T07:48:11;99726.69;;;20.95;59.52
49102;BME280;34913;47.520;19.186;2023-06-14T07:50:37;99729.41;;;21.02;59.72
49102;BME280;34913;47.520;19.186;2023-06-14T07:53:02;99725.09;;;21.14;57.03
49102;BME280;34913;47.520;19.186;2023-06-14T07:55:28;99726.66;;;21.36;56.88
49102;BME280;34913;47.520;19.186;2023-06-14T07:57:54;99729.59;;;21.41;55.82
49102;BME280;34913;47.520;19.186;2023-06-14T08:00:20;99732.47;;;21.40;55.43
49102;BME280;34913;47.520;19.186;2023-06-14T08:02:46;99729.38;;;21.43;56.11
49102;BME280;34913;47.520;19.186;2023-06-14T08:05:12;99728.75;;;21.48;51.84
49102;BME280;34913;47.520;19.186;2023-06-14T08:07:38;99736.00;;;21.40;52.90
49102;BME280;34913;47.520;19.186;2023-06-14T08:10:05;99731.06;;;21.51;53.90
49102;BME280;34913;47.520;19.186;2023-06-14T08:12:32;99737.69;;;21.55;53.25
49102;BME280;34913;47.520;19.186;2023-06-14T08:14:59;99729.38;;;21.56;53.25
49102;BME280;34913;47.520;19.186;2023-06-14T08:17:25;99736.94;;;21.87;54.21
49102;BME280;34913;47.520;19.186;2023-06-14T08:19:50;99730.50;;;22.61;50.94
49102;BME280;34913;47.520;19.186;2023-06-14T08:22:16;99730.84;;;22.84;51.61
49102;BME280;34913;47.520;19.186;2023-06-14T08:24:41;99733.69;;;23.16;49.67
49102;BME280;34913;47.520;19.186;2023-06-14T08:27:07;99734.97;;;23.83;51.20
49102;BME280;34913;47.520;19.186;2023-06-14T08:29:33;99730.66;;;24.32;49.37
49102;BME280;34913;47.520;19.186;2023-06-14T08:31:58;99740.84;;;24.37;46.25
49102;BME280;34913;47.520;19.186;2023-06-14T08:34:23;99739.66;;;23.70;47.50
49102;BME280;34913;47.520;19.186;2023-06-14T08:36:52;99737.16;;;23.68;47.14
49102;BME280;34913;47.520;19.186;2023-06-14T08:39:17;99734.41;;;23.36;47.02
49102;BME280;34913;47.520;19.186;2023-06-14T08:41:46;99743.97;;;22.94;51.13
49102;BME280;34913;47.520;19.186;2023-06-14T08:44:11;99739.72;;;23.18;49.99
49102;BME280;34913;47.520;19.186;2023-06-14T08:46:37;99748.88;;;23.17;49.70
49102;BME280;34913;47.520;19.186;2023-06-14T08:49:03;99747.97;;;23.30;49.99
49102;BME280;34913;47.520;19.186;2023-06-14T08:51:31;99759.13;;;23.08;46.90
49102;BME280;34913;47.520;19.186;2023-06-14T08:54:01;99765.97;;;23.11;49.71
49102;BME280;34913;47.520;19.186;2023-06-14T08:56:29;99770.53;;;23.24;48.11
49102;BME280;34913;47.520;19.186;2023-06-14T08:58:56;99765.59;;;23.01;48.06
49102;BME280;34913;47.520;19.186;2023-06-14T09:01:23;99774.28;;;23.16;49.77
49102;BME280;34913;47.520;19.186;2023-06-14T09:03:50;99768.94;;;23.48;47.97
49102;BME280;34913;47.520;19.186;2023-06-14T09:06:16;99776.59;;;23.64;46.02
49102;BME280;34913;47.520;19.186;2023-06-14T09:08:44;99773.06;;;23.63;47.47
49102;BME280;34913;47.520;19.186;2023-06-14T09:11:11;99772.25;;;23.63;47.40
49102;BME280;34913;47.520;19.186;2023-06-14T09:13:40;99770.91;;;23.27;47.96
49102;BME280;34913;47.520;19.186;2023-06-14T09:16:07;99772.22;;;23.11;49.48
49102;BME280;34913;47.520;19.186;2023-06-14T09:18:40;99765.81;;;22.99;48.99
49102;BME280;34913;47.520;19.186;2023-06-14T09:21:07;99770.81;;;22.82;49.96
49102;BME280;34913;47.520;19.186;2023-06-14T09:23:39;99775.59;;;22.94;50.21
49102;BME280;34913;47.520;19.186;2023-06-14T09:26:15;99779.63;;;23.29;47.95
49102;BME280;34913;47.520;19.186;2023-06-14T09:28:48;99762.91;;;23.46;45.78
49102;BME280;34913;47.520;19.186;2023-06-14T09:31:15;99773.69;;;23.52;47.57
49102;BME280;34913;47.520;19.186;2023-06-14T09:33:42;99764.94;;;23.57;44.82
49102;BME280;34913;47.520;19.186;2023-06-14T09:36:17;99766.16;;;23.67;46.15
49102;BME280;34913;47.520;19.186;2023-06-14T09:38:51;99765.63;;;23.84;44.15
49102;BME280;34913;47.520;19.186;2023-06-14T09:41:17;99762.31;;;23.82;44.88
49102;BME280;34913;47.520;19.186;2023-06-14T09:43:43;99752.44;;;23.04;43.17
49102;BME280;34913;47.520;19.186;2023-06-14T09:46:10;99755.75;;;23.13;45.44
49102;BME280;34913;47.520;19.186;2023-06-14T09:48:36;99753.03;;;23.20;45.47
49102;BME280;34913;47.520;19.186;2023-06-14T09:51:02;99749.34;;;23.01;48.21
49102;BME280;34913;47.520;19.186;2023-06-14T09:53:30;99756.00;;;22.98;45.94
49102;BME280;34913;47.520;19.186;2023-06-14T09:55:57;99751.09;;;22.55;46.61
49102;BME280;34913;47.520;19.186;2023-06-14T09:58:26;99755.50;;;22.37;47.62
49102;BME280;34913;47.520;19.186;2023-06-14T10:00:52;99754.34;;;23.04;46.52
49102;BME280;34913;47.520;19.186;2023-06-14T10:03:25;99745.88;;;23.38;42.64
49102;BME280;34913;47.520;19.186;2023-06-14T10:05:55;99745.19;;;23.88;42.62
49102;BME280;34913;47.520;19.186;2023-06-14T10:08:25;99750.00;;;24.42;42.08
49102;BME280;34913;47.520;19.186;2023-06-14T10:10:55;99738.03;;;24.87;39.72
49102;BME280;34913;47.520;19.186;2023-06-14T10:13:21;99740.69;;;25.12;41.64
49102;BME280;34913;47.520;19.186;2023-06-14T10:18:47;99736.59;;;25.39;40.39
49102;BME280;34913;47.520;19.186;2023-06-14T10:23:49;99739.06;;;26.12;37.99
49102;BME280;34913;47.520;19.186;2023-06-14T10:26:25;99737.69;;;26.33;37.49
49102;BME280;34913;47.520;19.186;2023-06-14T10:29:01;99735.69;;;26.52;37.53
49102;BME280;34913;47.520;19.186;2023-06-14T10:31:43;99734.97;;;26.68;37.41
49102;BME280;34913;47.520;19.186;2023-06-14T10:34:09;99729.41;;;26.87;35.17
49102;BME280;34913;47.520;19.186;2023-06-14T10:36:34;99730.09;;;26.94;34.59
49102;BME280;34913;47.520;19.186;2023-06-14T10:39:03;99728.22;;;26.94;35.89
49102;BME280;34913;47.520;19.186;2023-06-14T10:41:30;99729.25;;;26.93;34.15
49102;BME280;34913;47.520;19.186;2023-06-14T10:44:30;99730.78;;;27.01;35.45
49102;BME280;34913;47.520;19.186;2023-06-14T10:46:58;99722.19;;;26.81;34.22
49102;BME280;34913;47.520;19.186;2023-06-14T10:49:42;99721.13;;;26.82;35.26
49102;BME280;34913;47.520;19.186;2023-06-14T10:52:09;99722.03;;;26.99;34.70
49102;BME280;34913;47.520;19.186;2023-06-14T10:57:25;99719.84;;;27.24;31.43
49102;BME280;34913;47.520;19.186;2023-06-14T10:59:51;99727.44;;;27.22;31.84
49102;BME280;34913;47.520;19.186;2023-06-14T11:04:51;99715.44;;;26.36;31.38
49102;BME280;34913;47.520;19.186;2023-06-14T11:11:07;99714.28;;;25.19;35.30
49102;BME280;34913;47.520;19.186;2023-06-14T11:13:02;99711.69;;;25.72;35.62
49102;BME280;34913;47.520;19.186;2023-06-14T11:15:33;99707.59;;;25.21;33.52
49102;BME280;34913;47.520;19.186;2023-06-14T11:18:06;99709.78;;;25.13;35.37
49102;BME280;34913;47.520;19.186;2023-06-14T11:20:33;99699.03;;;24.63;34.34
49102;BME280;34913;47.520;19.186;2023-06-14T11:22:59;99697.19;;;24.82;36.00
49102;BME280;34913;47.520;19.186;2023-06-14T11:25:26;99692.28;;;25.39;37.65
49102;BME280;34913;47.520;19.186;2023-06-14T11:27:53;99691.84;;;25.72;37.42
49102;BME280;34913;47.520;19.186;2023-06-14T11:30:19;99694.28;;;26.15;36.52
49102;BME280;34913;47.520;19.186;2023-06-14T11:32:49;99691.00;;;25.83;35.29
49102;BME280;34913;47.520;19.186;2023-06-14T11:35:16;99701.78;;;25.48;37.18
49102;BME280;34913;47.520;19.186;2023-06-14T11:37:42;99701.75;;;25.36;36.60
49102;BME280;34913;47.520;19.186;2023-06-14T11:40:10;99694.84;;;25.03;35.86
49102;BME280;34913;47.520;19.186;2023-06-14T11:42:37;99693.72;;;24.74;37.67
49102;BME280;34913;47.520;19.186;2023-06-14T11:45:03;99698.09;;;25.12;36.16
49102;BME280;34913;47.520;19.186;2023-06-14T11:47:36;99695.84;;;25.39;36.42
49102;BME280;34913;47.520;19.186;2023-06-14T11:50:03;99694.34;;;25.85;37.67
49102;BME280;34913;47.520;19.186;2023-06-14T11:52:29;99698.41;;;25.34;35.19
49102;BME280;34913;47.520;19.186;2023-06-14T11:54:55;99697.72;;;25.09;37.81
49102;BME280;34913;47.520;19.186;2023-06-14T11:57:21;99696.94;;;25.01;37.92
49102;BME280;34913;47.520;19.186;2023-06-14T11:59:47;99701.59;;;24.39;40.09
49102;BME280;34913;47.520;19.186;2023-06-14T12:02:14;99707.28;;;24.31;39.42
49102;BME280;34913;47.520;19.186;2023-06-14T12:04:43;99703.78;;;24.24;39.83
49102;BME280;34913;47.520;19.186;2023-06-14T12:07:10;99704.53;;;24.56;39.21
49102;BME280;34913;47.520;19.186;2023-06-14T12:12:25;99705.47;;;24.50;40.31
49102;BME280;34913;47.520;19.186;2023-06-14T12:14:51;99702.28;;;24.53;40.68
49102;BME280;34913;47.520;19.186;2023-06-14T12:17:18;99703.50;;;24.94;39.94
49102;BME280;34913;47.520;19.186;2023-06-14T12:19:44;99709.09;;;25.17;40.68
49102;BME280;34913;47.520;19.186;2023-06-14T12:22:11;99700.50;;;25.20;39.17
49102;BME280;34913;47.520;19.186;2023-06-14T12:24:36;99700.25;;;24.85;39.48
49102;BME280;34913;47.520;19.186;2023-06-14T12:27:03;99702.00;;;24.79;40.79
49102;BME280;34913;47.520;19.186;2023-06-14T12:29:30;99699.34;;;24.91;41.00
49102;BME280;34913;47.520;19.186;2023-06-14T12:31:56;99704.78;;;24.91;39.60
49102;BME280;34913;47.520;19.186;2023-06-14T12:34:26;99694.97;;;24.54;41.00
49102;BME280;34913;47.520;19.186;2023-06-14T12:36:55;99691.97;;;24.80;40.75
49102;BME280;34913;47.520;19.186;2023-06-14T12:39:21;99702.44;;;24.76;40.94
49102;BME280;34913;47.520;19.186;2023-06-14T12:41:47;99704.41;;;24.69;39.78
49102;BME280;34913;47.520;19.186;2023-06-14T12:44:13;99701.22;;;24.36;40.08
49102;BME280;34913;47.520;19.186;2023-06-14T12:46:40;99704.53;;;24.13;41.58
49102;BME280;34913;47.520;19.186;2023-06-14T12:49:08;99702.47;;;23.83;42.70
49102;BME280;34913;47.520;19.186;2023-06-14T12:51:33;99699.69;;;23.58;41.36
49102;BME280;34913;47.520;19.186;2023-06-14T12:53:59;99703.22;;;23.59;42.07
49102;BME280;34913;47.520;19.186;2023-06-14T12:56:24;99716.91;;;23.39;42.10
49102;BME280;34913;47.520;19.186;2023-06-14T12:58:51;99704.81;;;23.42;42.00
49102;BME280;34913;47.520;19.186;2023-06-14T13:01:17;99708.47;;;23.60;40.83
49102;BME280;34913;47.520;19.186;2023-06-14T13:03:42;99703.19;;;23.72;41.41
49102;BME280;34913;47.520;19.186;2023-06-14T13:06:08;99692.94;;;23.99;41.68
49102;BME280;34913;47.520;19.186;2023-06-14T13:08:33;99689.47;;;24.60;41.29
49102;BME280;34913;47.520;19.186;2023-06-14T13:10:59;99698.22;;;24.44;41.06
49102;BME280;34913;47.520;19.186;2023-06-14T13:13:24;99690.97;;;24.13;39.44